createdAt,value
2023-05-16T04:55:14.948Z,14.23
2023-05-16T05:00:19.472Z,15.93
2023-05-16T05:05:23.097Z,12.57
2023-05-16T05:10:28.353Z,14.27
2023-05-16T05:15:32.171Z,12.20
2023-05-16T05:20:36.855Z,13.88
2023-05-16T05:25:41.930Z,16.42
2023-05-16T05:30:45.895Z,13.77
2023-05-16T05:35:49.403Z,12.65
2023-05-16T05:40:54.436Z,11.43
2023-05-16T05:45:58.212Z,15.48
2023-05-16T05:51:01.777Z,10.82
2023-05-16T05:56:07.003Z,11.63
2023-05-16T06:01:11.626Z,13.13
2023-05-16T06:06:16.102Z,12.43
2023-05-16T06:11:21.574Z,13.00
2023-05-16T06:16:26.781Z,12.40
2023-05-16T06:21:30.679Z,16.27
2023-05-16T06:26:36.933Z,15.63
2023-05-16T06:31:40.560Z,17.45
2023-05-16T06:36:44.508Z,11.70
2023-05-16T06:41:49.785Z,14.65
2023-05-16T06:46:53.469Z,12.82
2023-05-16T06:51:57.019Z,13.85
2023-05-16T06:57:02.313Z,15.13
2023-05-16T07:02:06.363Z,13.48
2023-05-16T07:07:10.063Z,12.90
2023-05-16T07:12:15.038Z,15.25
2023-05-16T07:17:19.101Z,13.52
2023-05-16T07:22:22.812Z,15.75
2023-05-16T07:27:27.937Z,17.70
2023-05-16T07:32:31.803Z,15.63
2023-05-16T07:37:35.977Z,13.30
2023-05-16T07:42:40.771Z,10.55
2023-05-16T07:47:44.313Z,12.82
2023-05-16T07:52:47.902Z,14.65
2023-05-16T07:57:52.798Z,11.52
2023-05-16T08:02:56.395Z,13.88
2023-05-16T08:07:59.881Z,10.90
2023-05-16T08:13:05.119Z,13.73
2023-05-16T08:18:15.201Z,9.68
2023-05-16T08:23:18.765Z,13.45
2023-05-16T08:28:23.645Z,11.30
2023-05-16T08:33:27.389Z,15.13
2023-05-16T08:38:30.894Z,16.92
2023-05-16T08:43:36.788Z,12.55
2023-05-16T08:48:41.476Z,15.70
2023-05-16T08:53:51.800Z,14.02
2023-05-16T08:58:58.139Z,10.73
2023-05-16T09:04:02.403Z,12.10
2023-05-16T09:09:08.264Z,11.98
2023-05-16T09:14:14.336Z,14.27
2023-05-16T09:19:18.460Z,8.45
2023-05-16T09:24:27.386Z,9.20
2023-05-16T09:29:33.784Z,12.20
2023-05-16T09:34:40.663Z,11.00
2023-05-16T09:39:48.536Z,8.98
2023-05-16T09:44:56.725Z,8.45
2023-05-16T09:50:01.466Z,9.27
2023-05-16T09:55:08.522Z,10.48
2023-05-16T10:00:14.617Z,12.10
2023-05-16T10:05:18.277Z,9.00
2023-05-16T10:10:21.956Z,8.90
2023-05-16T10:15:27.885Z,9.45
2023-05-16T10:20:32.337Z,13.90
2023-05-16T10:25:41.162Z,16.08
2023-05-16T10:30:47.323Z,10.43
2023-05-16T10:35:51.110Z,9.55
2023-05-16T10:40:55.021Z,10.15
2023-05-16T10:46:07.552Z,12.65
2023-05-16T10:56:29.726Z,13.60
2023-05-16T11:01:36.216Z,17.27
2023-05-16T11:06:54.738Z,16.70
2023-05-16T11:12:00.989Z,14.65
2023-05-16T11:17:10.501Z,13.23
2023-05-16T11:22:26.213Z,15.40
2023-05-16T11:27:31.714Z,16.35
2023-05-16T11:32:37.710Z,14.82
2023-05-16T11:37:41.636Z,18.77
2023-05-16T11:42:47.656Z,23.90
2023-05-16T11:47:52.889Z,20.17
2023-05-16T11:52:57.613Z,18.05
2023-05-16T11:58:02.177Z,21.63
2023-05-16T12:03:08.337Z,16.92
2023-05-16T12:08:12.768Z,24.10
2023-05-16T12:13:18.727Z,24.38
2023-05-16T12:18:25.421Z,18.67
2023-05-16T12:23:29.860Z,17.05
2023-05-16T12:28:34.830Z,20.45
2023-05-16T12:33:40.061Z,22.52
2023-05-16T12:38:47.484Z,22.48
2023-05-16T12:43:51.425Z,20.73
2023-05-16T12:49:05.198Z,21.75
2023-05-16T12:54:11.639Z,20.92
2023-05-16T12:59:15.474Z,21.55
2023-05-16T13:04:20.706Z,22.77
2023-05-16T13:09:24.732Z,20.35
2023-05-16T13:14:28.285Z,21.45
2023-05-16T13:19:33.191Z,21.15
2023-05-16T13:24:36.938Z,24.92
2023-05-16T13:29:40.783Z,26.00
2023-05-16T13:34:45.624Z,27.98
2023-05-16T13:39:49.162Z,23.50
2023-05-16T13:44:52.615Z,26.40
2023-05-16T13:49:57.751Z,23.55
2023-05-16T13:55:01.299Z,26.70
2023-05-16T14:00:35.385Z,32.45
2023-05-16T14:05:37.063Z,28.98
2023-05-16T14:10:40.522Z,28.77
2023-05-16T14:15:44.385Z,33.40
2023-05-16T14:20:50.794Z,34.92
2023-05-16T14:25:55.065Z,36.63
2023-05-16T14:30:59.252Z,39.00
2023-05-16T14:36:06.498Z,31.02
2023-05-16T14:41:11.365Z,39.85
2023-05-16T14:46:15.230Z,37.75
2023-05-16T14:51:20.365Z,38.20
2023-05-16T14:56:23.833Z,38.60
2023-05-16T15:01:28.873Z,38.15
2023-05-16T15:06:35.328Z,53.92
2023-05-16T15:11:38.775Z,33.97
2023-05-16T15:16:43.003Z,40.78
2023-05-16T15:21:48.274Z,35.67
2023-05-16T15:26:53.131Z,41.90
2023-05-16T15:31:57.160Z,35.50
2023-05-16T15:37:02.717Z,33.40
2023-05-16T15:42:11.291Z,36.95
2023-05-16T15:47:14.999Z,32.42
2023-05-16T15:52:22.338Z,36.95
2023-05-16T15:57:26.449Z,32.85
2023-05-16T16:02:30.038Z,35.63
2023-05-16T16:07:35.492Z,33.75
2023-05-16T16:12:38.988Z,33.38
2023-05-16T16:17:42.471Z,31.33
2023-05-16T16:22:47.688Z,34.28
2023-05-16T16:27:51.809Z,27.45
2023-05-16T16:32:55.401Z,33.10
2023-05-16T16:38:06.681Z,29.75
2023-05-16T16:43:10.772Z,31.83
2023-05-16T16:48:14.254Z,27.85
2023-05-16T16:53:19.240Z,33.05
2023-05-16T16:58:23.018Z,32.95
2023-05-16T17:03:26.871Z,26.83
2023-05-16T17:08:31.785Z,28.27
2023-05-16T17:13:37.841Z,25.90
2023-05-16T17:18:42.904Z,25.70
2023-05-16T17:23:47.861Z,25.90
2023-05-16T17:28:51.427Z,23.67
2023-05-16T17:33:54.840Z,28.58
2023-05-16T17:38:59.894Z,23.23
2023-05-16T17:44:03.473Z,28.92
2023-05-16T17:49:08.201Z,22.88
2023-05-16T17:54:13.513Z,25.90
2023-05-16T17:59:17.875Z,29.23
2023-05-16T18:04:22.631Z,28.80
2023-05-16T18:09:28.763Z,25.10
2023-05-16T18:14:33.097Z,27.38
2023-05-16T18:19:37.500Z,28.23
2023-05-16T18:24:42.407Z,27.58
2023-05-16T18:29:47.288Z,35.60
2023-05-16T18:34:50.772Z,26.95
2023-05-16T18:39:55.625Z,27.77
2023-05-16T18:44:59.125Z,30.85
2023-05-16T18:50:02.875Z,28.13
2023-05-16T18:55:08.760Z,29.83
2023-05-16T19:00:13.611Z,31.90
2023-05-16T19:05:17.355Z,32.13
2023-05-16T19:10:22.459Z,33.85
2023-05-16T19:15:26.387Z,30.70
2023-05-16T19:20:30.265Z,31.73
2023-05-16T19:25:35.486Z,28.13
2023-05-16T19:30:39.667Z,35.60
2023-05-16T19:35:43.717Z,31.27
2023-05-16T19:40:48.676Z,35.80
2023-05-16T19:45:52.936Z,36.05
2023-05-16T19:50:56.736Z,32.72
2023-05-16T19:56:02.118Z,35.78
2023-05-16T20:01:06.122Z,35.25
2023-05-16T20:06:09.743Z,33.38
2023-05-16T20:11:14.859Z,32.15
2023-05-16T20:16:22.479Z,29.00
2023-05-16T20:21:26.650Z,30.50
2023-05-16T20:26:31.526Z,27.55
2023-05-16T20:31:35.921Z,29.45
2023-05-16T20:36:39.737Z,27.50
2023-05-16T20:41:48.296Z,29.55
2023-05-16T20:46:52.685Z,23.98
2023-05-16T20:51:56.489Z,26.73
2023-05-16T20:57:02.936Z,22.52
2023-05-16T21:02:09.709Z,24.38
2023-05-16T21:07:13.213Z,23.92
2023-05-16T21:12:18.037Z,26.40
2023-05-16T21:17:21.551Z,22.30
2023-05-16T21:22:25.036Z,24.83
2023-05-16T21:27:29.968Z,24.08
2023-05-16T21:32:33.953Z,23.10
2023-05-16T21:37:37.404Z,26.48
2023-05-16T21:42:42.406Z,27.55
2023-05-16T21:47:46.276Z,25.70
2023-05-16T21:52:50.437Z,26.98
2023-05-16T21:57:55.622Z,29.70
2023-05-16T22:02:59.168Z,26.17
2023-05-16T22:08:02.681Z,22.30
2023-05-16T22:13:08.168Z,23.48
2023-05-16T22:18:12.089Z,25.23
2023-05-16T22:23:15.652Z,21.20
2023-05-16T22:28:20.840Z,21.13
